createdAt,value
2018-03-07T00:01:47.468Z,0.93
2018-03-07T00:04:13.211Z,0.93
2018-03-07T00:06:38.945Z,0.91
2018-03-07T00:09:04.689Z,0.94
2018-03-07T00:11:30.411Z,0.94
2018-03-07T00:13:56.142Z,0.89
2018-03-07T00:16:21.879Z,0.91
2018-03-07T00:18:47.606Z,0.95
2018-03-07T00:21:13.330Z,0.93
2018-03-07T00:23:39.079Z,0.97
2018-03-07T00:26:04.806Z,1.02
2018-03-07T00:28:30.557Z,1.05
2018-03-07T00:30:56.300Z,1.02
2018-03-07T00:33:22.025Z,1.05
2018-03-07T00:35:47.745Z,1.02
2018-03-07T00:38:13.465Z,1.03
2018-03-07T00:40:39.202Z,0.93
2018-03-07T00:43:04.922Z,0.91
2018-03-07T00:45:30.678Z,0.94
2018-03-07T00:47:56.405Z,0.88
2018-03-07T00:50:22.122Z,0.94
2018-03-07T00:52:47.866Z,1.03
2018-03-07T00:55:13.597Z,0.98
2018-03-07T00:57:39.326Z,0.87
2018-03-07T01:00:05.052Z,0.79
2018-03-07T01:02:30.768Z,0.79
2018-03-07T01:04:56.492Z,0.83
2018-03-07T01:07:22.209Z,0.83
2018-03-07T01:09:48.095Z,0.81
2018-03-07T01:12:13.833Z,0.78
2018-03-07T01:14:39.550Z,0.78
2018-03-07T01:17:05.282Z,0.81
2018-03-07T01:19:31.018Z,0.81
2018-03-07T01:21:56.746Z,0.74
2018-03-07T01:24:22.466Z,0.78
2018-03-07T01:26:48.198Z,0.74
2018-03-07T01:29:13.929Z,0.80
2018-03-07T01:31:39.657Z,0.80
2018-03-07T01:34:05.385Z,0.85
2018-03-07T01:36:31.125Z,0.85
2018-03-07T01:38:56.854Z,0.88
2018-03-07T01:41:22.589Z,0.89
2018-03-07T01:43:48.312Z,0.91
2018-03-07T01:46:14.045Z,0.91
2018-03-07T01:48:39.769Z,0.87
2018-03-07T01:51:05.499Z,0.86
2018-03-07T01:53:31.226Z,0.84
2018-03-07T01:55:56.982Z,0.83
2018-03-07T01:58:22.721Z,0.86
2018-03-07T02:00:48.441Z,0.89
2018-03-07T02:03:14.178Z,0.85
2018-03-07T02:05:39.902Z,0.83
2018-03-07T02:08:05.662Z,0.79
2018-03-07T02:10:33.190Z,0.85
2018-03-07T02:12:58.930Z,0.82
2018-03-07T02:15:24.655Z,0.81
2018-03-07T02:17:50.398Z,0.80
2018-03-07T02:20:16.116Z,0.84
2018-03-07T02:22:41.844Z,0.85
2018-03-07T02:25:07.570Z,0.85
2018-03-07T02:27:33.293Z,0.80
2018-03-07T02:29:59.010Z,0.80
2018-03-07T02:32:24.740Z,0.74
2018-03-07T02:34:50.454Z,0.72
2018-03-07T02:37:16.186Z,0.73
2018-03-07T02:39:41.910Z,0.66
2018-03-07T02:42:07.656Z,0.60
2018-03-07T02:44:33.393Z,0.56
2018-03-07T02:46:59.113Z,0.57
2018-03-07T02:49:24.856Z,0.55
2018-03-07T02:51:50.585Z,0.53
2018-03-07T02:54:16.318Z,0.51
2018-03-07T02:56:42.039Z,0.49
2018-03-07T02:59:07.770Z,0.52
2018-03-07T03:01:33.491Z,0.53
2018-03-07T03:03:59.233Z,0.49
2018-03-07T03:06:24.950Z,0.43
2018-03-07T03:08:50.682Z,0.43
2018-03-07T03:11:16.404Z,0.39
2018-03-07T03:13:42.158Z,0.36
2018-03-07T03:16:07.885Z,0.31
2018-03-07T03:18:33.613Z,0.37
2018-03-07T03:20:59.342Z,0.40
2018-03-07T03:23:25.077Z,0.37
2018-03-07T03:25:50.794Z,0.34
2018-03-07T03:28:16.534Z,0.33
2018-03-07T03:30:42.251Z,0.37
2018-03-07T03:33:08.000Z,0.35
2018-03-07T03:35:33.735Z,0.32
2018-03-07T03:37:59.457Z,0.34
2018-03-07T03:40:25.198Z,0.36
2018-03-07T03:42:50.929Z,0.34
2018-03-07T03:45:16.662Z,0.30
2018-03-07T03:47:42.390Z,0.32
2018-03-07T03:50:08.157Z,0.27
2018-03-07T03:52:33.888Z,0.27
2018-03-07T03:54:59.626Z,0.24
2018-03-07T03:57:25.337Z,0.22
2018-03-07T03:59:51.073Z,0.22
2018-03-07T04:02:16.799Z,0.25
2018-03-07T04:04:42.518Z,0.29
2018-03-07T04:07:08.241Z,0.30
2018-03-07T04:09:33.969Z,0.31
2018-03-07T04:11:59.706Z,0.32
2018-03-07T04:14:25.450Z,0.35
2018-03-07T04:16:51.190Z,0.36
2018-03-07T04:19:16.950Z,0.40
2018-03-07T04:21:42.691Z,0.43
2018-03-07T04:24:08.431Z,0.39
2018-03-07T04:26:34.166Z,0.44
2018-03-07T04:28:59.922Z,0.43
2018-03-07T04:31:25.665Z,0.47
2018-03-07T04:33:51.410Z,0.48
2018-03-07T04:36:17.157Z,0.49
2018-03-07T04:38:42.889Z,0.49
2018-03-07T04:41:08.629Z,0.51
2018-03-07T04:43:34.353Z,0.53
2018-03-07T04:46:00.088Z,0.53
2018-03-07T04:48:25.822Z,0.56
2018-03-07T04:50:51.566Z,0.60
2018-03-07T04:53:17.306Z,0.58
2018-03-07T04:55:43.054Z,0.59
2018-03-07T04:58:08.794Z,0.60
2018-03-07T05:00:34.535Z,0.60
2018-03-07T05:03:00.291Z,0.60
2018-03-07T05:05:26.042Z,0.61
2018-03-07T05:07:51.779Z,0.64
2018-03-07T05:10:17.533Z,0.62
2018-03-07T05:12:43.279Z,0.66
2018-03-07T05:15:09.005Z,0.65
2018-03-07T05:17:34.714Z,0.51
2018-03-07T05:20:00.438Z,0.66
2018-03-07T05:22:26.162Z,0.68
2018-03-07T05:24:51.877Z,0.67
2018-03-07T05:27:17.609Z,0.68
2018-03-07T05:29:43.322Z,0.69
2018-03-07T05:32:09.061Z,0.69
2018-03-07T05:34:34.774Z,0.71
2018-03-07T05:37:00.509Z,0.70
2018-03-07T05:39:26.233Z,0.70
2018-03-07T05:41:51.959Z,0.71
2018-03-07T05:44:17.686Z,0.76
2018-03-07T05:46:43.442Z,0.71
2018-03-07T05:49:09.158Z,0.70
2018-03-07T05:51:34.893Z,0.75
2018-03-07T05:54:00.605Z,0.73
2018-03-07T05:56:26.334Z,0.77
2018-03-07T05:58:52.045Z,0.78
2018-03-07T06:01:17.769Z,0.76
2018-03-07T06:03:43.482Z,0.78
2018-03-07T06:06:09.214Z,0.80
2018-03-07T06:08:34.934Z,0.80
2018-03-07T06:11:00.648Z,0.80
2018-03-07T06:13:26.385Z,0.81
2018-03-07T06:15:52.109Z,0.83
2018-03-07T06:18:17.835Z,0.86
2018-03-07T06:20:43.554Z,0.85
2018-03-07T06:23:09.278Z,0.86
2018-03-07T06:25:34.987Z,0.85
2018-03-07T06:28:00.706Z,0.88
2018-03-07T06:30:26.426Z,0.86
2018-03-07T06:32:52.149Z,0.84
2018-03-07T06:35:17.864Z,0.86
2018-03-07T06:37:43.594Z,0.85
2018-03-07T06:40:09.318Z,0.87
2018-03-07T06:42:35.054Z,0.89
2018-03-07T06:45:00.787Z,0.90
2018-03-07T06:47:26.522Z,0.94
2018-03-07T06:49:52.242Z,0.91
2018-03-07T06:52:17.969Z,0.96
2018-03-07T06:54:43.690Z,0.96
2018-03-07T06:57:09.422Z,0.96
2018-03-07T06:59:35.146Z,0.93
2018-03-07T07:02:00.886Z,0.97
2018-03-07T07:04:26.619Z,1.00
2018-03-07T07:06:52.366Z,0.98
2018-03-07T07:09:18.091Z,1.00
2018-03-07T07:11:43.814Z,1.03
2018-03-07T07:14:09.557Z,1.04
2018-03-07T07:16:35.295Z,1.06
2018-03-07T07:19:01.026Z,1.03
2018-03-07T07:21:26.758Z,1.08
2018-03-07T07:23:52.494Z,1.05
2018-03-07T07:26:18.219Z,1.09
2018-03-07T07:28:43.946Z,1.12
2018-03-07T07:31:09.671Z,1.14
2018-03-07T07:33:35.399Z,1.14
2018-03-07T07:36:01.127Z,1.17
2018-03-07T07:38:26.866Z,1.19
2018-03-07T07:40:52.586Z,1.21
2018-03-07T07:43:18.328Z,1.25
2018-03-07T07:45:44.046Z,1.23
2018-03-07T07:48:09.777Z,1.33
2018-03-07T07:50:35.505Z,1.29
2018-03-07T07:53:01.237Z,1.29
2018-03-07T07:55:26.977Z,1.32
2018-03-07T07:57:52.711Z,1.32
2018-03-07T08:00:18.434Z,1.35
2018-03-07T08:02:44.149Z,1.38
2018-03-07T08:05:09.886Z,1.39
2018-03-07T08:07:35.602Z,1.41
2018-03-07T08:10:01.339Z,1.42
2018-03-07T08:12:27.080Z,1.42
2018-03-07T08:14:52.821Z,1.45
2018-03-07T08:17:18.545Z,1.45
2018-03-07T08:19:44.270Z,1.46
2018-03-07T08:22:09.986Z,1.49
2018-03-07T08:24:35.709Z,1.49
2018-03-07T08:27:01.421Z,1.54
2018-03-07T08:29:27.186Z,1.53
2018-03-07T08:31:52.904Z,1.61
2018-03-07T08:34:19.425Z,1.64
2018-03-07T08:36:45.165Z,1.69
2018-03-07T08:39:10.882Z,1.64
2018-03-07T08:41:36.622Z,1.67
2018-03-07T08:44:02.368Z,1.69
2018-03-07T08:46:28.091Z,1.68
2018-03-07T08:48:53.815Z,1.74
2018-03-07T08:51:19.569Z,1.75
2018-03-07T08:53:45.293Z,1.80
2018-03-07T08:56:11.018Z,1.83
2018-03-07T08:58:36.738Z,1.80
2018-03-07T09:01:02.486Z,1.80
2018-03-07T09:03:28.227Z,1.74
2018-03-07T09:05:53.954Z,1.79
2018-03-07T09:08:19.670Z,1.94
2018-03-07T09:10:45.403Z,1.99
2018-03-07T09:13:11.132Z,1.93
2018-03-07T09:15:36.869Z,2.02
2018-03-07T09:18:02.590Z,2.05
2018-03-07T09:20:28.333Z,2.01
2018-03-07T09:22:54.054Z,2.03
2018-03-07T09:25:19.790Z,2.09
2018-03-07T09:27:45.518Z,2.05
2018-03-07T09:30:11.247Z,2.05
2018-03-07T09:32:36.969Z,2.06
2018-03-07T09:35:02.750Z,2.10
2018-03-07T09:37:28.436Z,2.16
2018-03-07T09:39:54.163Z,2.21
2018-03-07T09:42:19.898Z,2.22
2018-03-07T09:44:45.653Z,2.31
2018-03-07T09:47:11.390Z,2.21
2018-03-07T09:49:37.101Z,2.18
2018-03-07T09:52:02.842Z,2.31
2018-03-07T09:54:28.566Z,2.44
2018-03-07T09:56:54.295Z,2.62
2018-03-07T09:59:20.025Z,2.63
2018-03-07T10:01:45.761Z,2.57
2018-03-07T10:04:11.485Z,2.49
2018-03-07T10:06:37.231Z,2.37
2018-03-07T10:09:03.010Z,2.48
2018-03-07T10:11:28.747Z,2.42
2018-03-07T10:13:54.485Z,2.41
2018-03-07T10:16:20.225Z,2.42
2018-03-07T10:18:45.946Z,2.47
2018-03-07T10:21:11.666Z,2.49
2018-03-07T10:23:37.409Z,2.50
2018-03-07T10:26:03.135Z,2.54
2018-03-07T10:28:28.872Z,2.63
2018-03-07T10:30:54.591Z,2.66
2018-03-07T10:33:26.336Z,2.72
2018-03-07T10:35:52.054Z,2.75
2018-03-07T10:38:17.798Z,2.69
2018-03-07T10:40:43.535Z,2.72
2018-03-07T10:43:09.267Z,2.64
2018-03-07T10:45:35.005Z,2.62
2018-03-07T10:48:00.738Z,2.62
2018-03-07T10:50:26.458Z,2.57
2018-03-07T10:52:52.194Z,2.61
2018-03-07T10:55:17.923Z,2.68
2018-03-07T10:57:43.696Z,2.74
2018-03-07T11:00:09.438Z,2.61
2018-03-07T11:02:35.192Z,2.70
2018-03-07T11:05:00.895Z,2.69
2018-03-07T11:07:26.614Z,2.74
2018-03-07T11:09:52.361Z,2.82
2018-03-07T11:12:18.079Z,2.88
2018-03-07T11:14:43.805Z,2.71
2018-03-07T11:17:09.522Z,2.82
2018-03-07T11:19:35.253Z,2.89
2018-03-07T11:22:00.982Z,2.79
2018-03-07T11:24:26.718Z,2.72
2018-03-07T11:26:52.463Z,2.73
2018-03-07T11:29:18.214Z,2.74
2018-03-07T11:31:43.953Z,2.87
2018-03-07T11:34:09.695Z,2.76
2018-03-07T11:36:35.421Z,2.81
2018-03-07T11:39:01.158Z,2.78
2018-03-07T11:41:26.894Z,2.87
2018-03-07T11:43:52.650Z,2.76
2018-03-07T11:46:18.378Z,2.82
2018-03-07T11:48:44.093Z,2.96
2018-03-07T11:51:09.805Z,2.95
2018-03-07T11:53:35.533Z,2.81
2018-03-07T11:56:01.261Z,2.83
2018-03-07T11:58:26.986Z,2.86
2018-03-07T12:00:52.710Z,2.78
2018-03-07T12:03:18.429Z,2.86
2018-03-07T12:05:44.171Z,2.73
2018-03-07T12:08:09.886Z,2.78
2018-03-07T12:10:35.627Z,2.64
2018-03-07T12:13:01.362Z,2.65
2018-03-07T12:15:27.122Z,2.72
2018-03-07T12:17:52.850Z,2.47
2018-03-07T12:20:18.591Z,2.52
2018-03-07T12:22:44.326Z,2.59
2018-03-07T12:25:10.056Z,2.63
2018-03-07T12:27:35.819Z,2.54
2018-03-07T12:30:01.555Z,2.45
2018-03-07T12:32:27.281Z,2.39
2018-03-07T12:34:53.026Z,2.43
2018-03-07T12:37:18.741Z,2.30
2018-03-07T12:39:44.473Z,2.38
2018-03-07T12:42:10.214Z,2.41
2018-03-07T12:44:35.929Z,2.42
2018-03-07T12:47:01.684Z,2.41
2018-03-07T12:49:27.394Z,2.38
2018-03-07T12:51:53.130Z,2.48
2018-03-07T12:54:18.867Z,2.52
2018-03-07T12:56:44.606Z,2.57
2018-03-07T12:59:10.331Z,2.54
2018-03-07T13:01:36.062Z,2.36
2018-03-07T13:04:01.792Z,2.36
2018-03-07T13:06:27.525Z,2.34
2018-03-07T13:08:53.241Z,2.34
2018-03-07T13:11:18.977Z,2.38
2018-03-07T13:13:44.712Z,2.30
2018-03-07T13:16:10.453Z,2.27
2018-03-07T13:18:36.174Z,2.30
2018-03-07T13:21:01.902Z,2.21
2018-03-07T13:23:27.626Z,2.21
2018-03-07T13:25:53.364Z,2.26
2018-03-07T13:28:19.084Z,2.18
2018-03-07T13:30:44.804Z,2.18
2018-03-07T13:33:10.539Z,2.26
2018-03-07T13:35:36.275Z,2.17
2018-03-07T13:38:02.026Z,2.18
2018-03-07T13:40:27.754Z,2.14
2018-03-07T13:42:53.493Z,2.13
2018-03-07T13:45:19.214Z,2.22
2018-03-07T13:47:44.952Z,2.20
2018-03-07T13:50:10.702Z,2.27
2018-03-07T13:52:40.955Z,2.29
2018-03-07T13:55:08.149Z,2.24
2018-03-07T13:57:33.895Z,2.21
2018-03-07T13:59:59.635Z,2.26
2018-03-07T14:02:25.377Z,2.26
2018-03-07T14:04:51.132Z,2.40
2018-03-07T14:07:16.881Z,2.37
2018-03-07T14:09:42.687Z,2.47
2018-03-07T14:12:08.449Z,2.37
2018-03-07T14:14:34.201Z,2.27
2018-03-07T14:16:59.947Z,2.29
2018-03-07T14:19:25.677Z,2.33
2018-03-07T14:21:51.393Z,2.40
2018-03-07T14:24:17.128Z,2.27
2018-03-07T14:26:42.846Z,2.26
2018-03-07T14:29:08.594Z,2.17
2018-03-07T14:31:34.305Z,2.24
2018-03-07T14:34:00.031Z,2.24
2018-03-07T14:36:25.758Z,2.14
2018-03-07T14:38:51.515Z,2.14
2018-03-07T14:41:17.219Z,2.19
2018-03-07T14:43:42.929Z,2.08
2018-03-07T14:46:08.629Z,2.03
2018-03-07T14:48:34.359Z,1.95
2018-03-07T14:51:00.080Z,1.92
2018-03-07T14:53:25.819Z,1.88
2018-03-07T14:55:51.534Z,1.83
2018-03-07T14:58:17.274Z,1.84
2018-03-07T15:00:42.994Z,1.75
2018-03-07T15:03:08.714Z,1.74
2018-03-07T15:05:34.425Z,1.76
2018-03-07T15:08:00.185Z,1.68
2018-03-07T15:10:25.925Z,1.71
2018-03-07T15:12:51.681Z,1.73
2018-03-07T15:15:17.410Z,1.74
2018-03-07T15:17:43.134Z,1.77
2018-03-07T15:20:08.863Z,1.69
2018-03-07T15:22:34.590Z,1.67
2018-03-07T15:25:00.322Z,1.69
2018-03-07T15:27:26.048Z,1.69
2018-03-07T15:29:51.767Z,1.66
2018-03-07T15:32:17.502Z,1.65
2018-03-07T15:34:43.262Z,1.69
2018-03-07T15:37:09.152Z,1.66
2018-03-07T15:39:34.929Z,1.61
2018-03-07T15:42:00.704Z,1.53
2018-03-07T15:44:26.431Z,1.53
2018-03-07T15:46:52.362Z,1.51
2018-03-07T15:49:18.121Z,1.55
2018-03-07T15:51:43.915Z,1.47
2018-03-07T15:54:10.507Z,1.44
2018-03-07T15:56:36.320Z,1.44
2018-03-07T15:59:02.266Z,1.43
2018-03-07T16:01:28.192Z,1.56
2018-03-07T16:03:54.015Z,1.70
2018-03-07T16:06:20.888Z,1.69
2018-03-07T16:08:49.026Z,1.73
2018-03-07T16:11:14.942Z,1.54
2018-03-07T16:13:40.690Z,1.52
2018-03-07T16:16:06.438Z,1.45
2018-03-07T16:18:32.162Z,1.51
2018-03-07T16:20:57.915Z,1.37
2018-03-07T16:23:23.678Z,1.47
2018-03-07T16:25:49.432Z,1.48
2018-03-07T16:28:15.174Z,1.71
2018-03-07T16:30:41.004Z,1.55
2018-03-07T16:33:06.698Z,1.47
2018-03-07T16:35:32.451Z,1.55
2018-03-07T16:37:58.183Z,1.63
2018-03-07T16:40:23.962Z,1.39
2018-03-07T16:42:49.702Z,1.42
2018-03-07T16:45:15.441Z,1.52
2018-03-07T16:47:41.206Z,1.48
2018-03-07T16:50:06.932Z,1.39
2018-03-07T16:52:39.726Z,1.31
2018-03-07T16:55:05.452Z,1.54
2018-03-07T16:57:31.183Z,1.28
2018-03-07T16:59:56.904Z,1.22
2018-03-07T17:02:22.627Z,1.21
2018-03-07T17:04:48.423Z,1.15
2018-03-07T17:07:14.151Z,1.14
2018-03-07T17:09:39.865Z,1.13
2018-03-07T17:12:05.594Z,1.15
2018-03-07T17:14:31.322Z,1.11
2018-03-07T17:16:57.059Z,1.09
2018-03-07T17:19:22.774Z,1.11
2018-03-07T17:21:48.494Z,1.11
2018-03-07T17:24:14.206Z,1.12
2018-03-07T17:26:39.945Z,1.65
2018-03-07T17:29:05.671Z,1.37
2018-03-07T17:31:31.405Z,1.38
2018-03-07T17:33:57.110Z,1.35
2018-03-07T17:36:22.889Z,1.44
2018-03-07T17:38:48.623Z,1.41
2018-03-07T17:41:14.410Z,1.21
2018-03-07T17:43:40.213Z,1.13
2018-03-07T17:46:05.917Z,1.11
2018-03-07T17:48:31.642Z,1.13
2018-03-07T17:50:57.357Z,1.11
2018-03-07T17:53:23.097Z,1.07
2018-03-07T17:55:48.809Z,1.09
2018-03-07T17:58:14.537Z,1.39
2018-03-07T18:00:40.270Z,1.40
2018-03-07T18:03:06.003Z,1.26
2018-03-07T18:05:31.749Z,1.33
2018-03-07T18:07:57.486Z,1.47
2018-03-07T18:10:23.211Z,1.32
2018-03-07T18:12:48.973Z,1.34
2018-03-07T18:15:14.794Z,1.47
2018-03-07T18:17:40.542Z,1.26
2018-03-07T18:20:06.288Z,1.26
2018-03-07T18:22:32.058Z,1.25
2018-03-07T18:24:58.507Z,1.42
2018-03-07T18:27:24.245Z,1.31
2018-03-07T18:29:49.978Z,1.36
2018-03-07T18:32:15.779Z,1.26
2018-03-07T18:34:41.508Z,1.42
2018-03-07T18:37:07.246Z,1.19
2018-03-07T18:39:33.084Z,1.21
2018-03-07T18:41:58.842Z,1.19
2018-03-07T18:44:24.565Z,1.05
2018-03-07T18:46:50.294Z,1.04
2018-03-07T18:49:16.046Z,1.06
2018-03-07T18:51:41.778Z,1.02
2018-03-07T18:54:07.515Z,1.03
2018-03-07T18:56:33.267Z,1.03
2018-03-07T18:58:59.054Z,1.01
2018-03-07T19:01:24.804Z,1.05
2018-03-07T19:03:50.592Z,1.07
2018-03-07T19:06:16.297Z,1.03
2018-03-07T19:08:42.069Z,1.00
2018-03-07T19:11:07.819Z,0.98
2018-03-07T19:13:33.586Z,1.00
2018-03-07T19:15:59.360Z,0.96
2018-03-07T19:18:25.107Z,0.96
2018-03-07T19:20:50.844Z,0.93
2018-03-07T19:23:16.590Z,0.97
2018-03-07T19:25:42.322Z,0.93
2018-03-07T19:28:08.048Z,0.91
2018-03-07T19:30:33.786Z,0.90
2018-03-07T19:32:59.518Z,0.88
2018-03-07T19:35:25.258Z,0.91
2018-03-07T19:37:51.023Z,0.92
2018-03-07T19:40:16.778Z,0.89
2018-03-07T19:42:42.510Z,0.87
2018-03-07T19:45:08.242Z,0.87
2018-03-07T19:47:33.974Z,0.86
2018-03-07T19:49:59.717Z,0.86
2018-03-07T19:52:25.450Z,0.87
2018-03-07T19:54:51.211Z,0.87
2018-03-07T19:57:16.921Z,0.83
2018-03-07T19:59:42.660Z,0.86
2018-03-07T20:02:08.402Z,0.86
2018-03-07T20:04:35.563Z,0.84
2018-03-07T20:07:01.711Z,0.85
2018-03-07T20:09:28.807Z,0.87
2018-03-07T20:11:54.742Z,0.87
2018-03-07T20:14:20.694Z,0.88
2018-03-07T20:16:46.425Z,0.91
2018-03-07T20:19:12.245Z,0.89
2018-03-07T20:21:39.445Z,0.85
2018-03-07T20:24:05.539Z,0.84
2018-03-07T20:26:31.293Z,0.87
2018-03-07T20:28:57.014Z,0.88
2018-03-07T20:31:22.801Z,0.86
2018-03-07T20:33:48.747Z,0.85
2018-03-07T20:36:14.538Z,0.87
2018-03-07T20:38:40.317Z,0.86
2018-03-07T20:41:06.890Z,0.87
2018-03-07T20:43:32.622Z,0.84
2018-03-07T20:45:58.350Z,0.87
2018-03-07T20:48:24.151Z,0.87
2018-03-07T20:50:49.928Z,1.00
2018-03-07T20:53:15.657Z,1.11
2018-03-07T20:55:41.380Z,1.06
2018-03-07T20:58:07.105Z,1.03
2018-03-07T21:00:33.004Z,1.00
2018-03-07T21:02:58.732Z,1.13
2018-03-07T21:05:24.441Z,1.14
2018-03-07T21:07:50.177Z,1.11
2018-03-07T21:10:15.903Z,1.33
2018-03-07T21:12:42.024Z,1.21
2018-03-07T21:15:08.148Z,1.25
2018-03-07T21:17:34.237Z,1.22
2018-03-07T21:20:00.325Z,1.21
2018-03-07T21:22:26.461Z,1.13
2018-03-07T21:24:52.230Z,1.19
2018-03-07T21:27:18.352Z,1.15
2018-03-07T21:29:44.115Z,1.09
2018-03-07T21:32:10.270Z,1.13
2018-03-07T21:34:35.998Z,1.14
2018-03-07T21:37:02.050Z,1.21
2018-03-07T21:39:27.794Z,1.15
2018-03-07T21:41:53.522Z,1.14
2018-03-07T21:44:19.650Z,1.18
2018-03-07T21:46:45.606Z,1.28
2018-03-07T21:49:11.359Z,1.29
2018-03-07T21:51:37.493Z,1.23
2018-03-07T21:54:03.446Z,1.20
2018-03-07T21:56:29.220Z,1.10
2018-03-07T21:58:55.337Z,1.13
2018-03-07T22:01:21.431Z,1.15
2018-03-07T22:03:47.194Z,1.25
2018-03-07T22:06:12.917Z,1.23
2018-03-07T22:08:38.656Z,1.20
2018-03-07T22:11:04.380Z,1.21
2018-03-07T22:13:30.641Z,1.24
2018-03-07T22:15:56.670Z,1.24
2018-03-07T22:18:22.710Z,1.21
2018-03-07T22:20:48.846Z,1.21
2018-03-07T22:23:14.674Z,1.17
2018-03-07T22:25:40.401Z,1.07
2018-03-07T22:28:06.159Z,1.09
2018-03-07T22:30:31.907Z,1.06
2018-03-07T22:32:57.650Z,1.09
2018-03-07T22:35:23.389Z,1.05
2018-03-07T22:37:49.157Z,1.05
2018-03-07T22:40:14.914Z,1.08
2018-03-07T22:42:40.641Z,1.03
2018-03-07T22:45:06.390Z,1.07
2018-03-07T22:47:32.134Z,0.98
2018-03-07T22:49:57.886Z,0.95
2018-03-07T22:52:23.624Z,0.98
2018-03-07T22:54:49.391Z,0.89
2018-03-07T22:57:15.137Z,0.90
2018-03-07T22:59:42.291Z,0.85
2018-03-07T23:02:08.045Z,0.84
2018-03-07T23:04:33.787Z,0.85
2018-03-07T23:06:59.517Z,0.85
2018-03-07T23:09:25.358Z,0.83
2018-03-07T23:11:51.084Z,0.83
2018-03-07T23:14:16.809Z,0.82
2018-03-07T23:16:42.543Z,0.82
2018-03-07T23:19:08.317Z,0.82
2018-03-07T23:21:34.061Z,0.82
2018-03-07T23:23:59.777Z,0.82
2018-03-07T23:26:25.506Z,0.80
2018-03-07T23:28:51.218Z,0.79
2018-03-07T23:31:17.559Z,0.78
2018-03-07T23:33:43.305Z,0.79
2018-03-07T23:36:09.030Z,0.79
2018-03-07T23:38:34.755Z,0.80
2018-03-07T23:41:00.550Z,0.79
2018-03-07T23:43:26.270Z,0.80
2018-03-07T23:45:51.996Z,0.79
2018-03-07T23:48:18.111Z,0.82
2018-03-07T23:50:43.861Z,0.80
2018-03-07T23:53:09.598Z,0.79
2018-03-07T23:55:35.326Z,0.77
2018-03-07T23:58:01.074Z,0.90
